PASY METAR and TAF weather

Enter ICAO airport designator
Station Type Date Time Source
PASY METAR 2022/11/30 09:58 UTC NOAA

PASY 300958Z 06014KT 7SM OVC010 05/02 A3013 RMK AO2A SLP203 SLP ESTMD WND DATA ESTMD T00460024 400510040 RVNRO PNO $


Station Type Date Time Source
PASY Decoded METAR 2022/11/30 09:58 UTC NOAA

SHEMYA EARECKSON AS, AK, United States (PASY) 52-43N 174-07E
Nov 30, 2022 - 04:58 AM EST / 2022.11.30 0958 UTC
Wind: from the ENE (060 degrees) at 16 MPH (14 KT):0
Visibility: 7 mile(s):0
Sky conditions: overcast
Temperature: 40.3 F (4.6 C)
Dew Point: 36.3 F (2.4 C)
Relative Humidity: 85%
Pressure (altimeter): 30.13 in. Hg (1020 hPa)
ob: PASY 300958Z 06014KT 7SM OVC010 05/02 A3013 RMK AO2A SLP203 SLP ESTMD WND DATA ESTMD T00460024 400510040 RVNRO PNO
cycle: 10

Station Type Date Time Source
PASY TAF 2022/11/30 09:54 UTC NOAA

TAF TAF
AMD PASY 300945Z 3009/0112 05020KT 9999 BKN010 OVC015 QNH3010INS
TEMPO 3009/3013 BKN008 OVC010
BECMG 3011/3013 04015KT 9999 BKN005 OVC010 QNH3009INS
BECMG 3019/3020 12012KT 6000 -RA BR BKN004 OVC010 QNH2983INS TX07/0104Z TN05/3009Z

Example: see airport list